CMA CGM Herodote — MFEP — position and weather

sailwx.info

Track history (hours):
 
Tides and Currents Weather Stations Pressure Air Temp Water Temp Dewpoint Dewpoint Depression Visibility Wind Speed Wind Dir Waves Ship Positions

CMA CGM Herodote

Last reported at 2017-Oct-21 09:47 UTC. Time now 2017-Oct-23 04:30 UTC.
Position N 36°05' E 013°46'.

Length 170 m; draft 6.2 m.

Type: Cargo ship. MMSI: 235051085.

Date/timePositionNaut miles runAvg speedWind from/ knotsBaromVisibWave heightAir tempDewpointWater temp
2017-Oct-21 09:47N 36°05' E 013°46'615.5
2017-Oct-21 09:22N 36°02' E 013°53'615.7
2017-Oct-21 08:59N 35°58' E 013°59'816.4
2017-Oct-21 08:30N 35°54' E 014°07'816.5
2017-Oct-21 08:00N 35°50' E 014°16'816.4
2017-Oct-21 07:31N 35°45' E 014°24'815.6
2017-Oct-21 06:59N 35°47' E 014°34'3 5.7
2017-Oct-21 06:29N 35°49' E 014°32'0 0.8
2017-Oct-21 05:58N 35°49' E 014°32'0 0.0
2017-Oct-21 05:25N 35°49' E 014°32'0 0.0
2017-Oct-21 04:58N 35°49' E 014°32'0 0.0
2017-Oct-21 02:44N 35°49' E 014°32'0 0.0
2017-Oct-21 01:41N 35°49' E 014°32'0 0.0
2017-Oct-21 01:29N 35°49' E 014°32'0 0.0
2017-Oct-21 00:56N 35°49' E 014°32'0 0.0
2017-Oct-21 00:20N 35°49' E 014°32'0 0.0
2017-Oct-20 23:56N 35°49' E 014°32'0 0.0
2017-Oct-20 23:29N 35°49' E 014°32'0 0.0
2017-Oct-20 22:56N 35°49' E 014°32'0 0.0
2017-Oct-20 22:29N 35°49' E 014°32'0 0.0
2017-Oct-20 21:59N 35°49' E 014°32'0 0.0
2017-Oct-20 21:26N 35°49' E 014°32'0 0.0
2017-Oct-20 16:14N 35°49' E 014°32'0 0.0
2017-Oct-20 15:56N 35°49' E 014°32'0 0.0
2017-Oct-20 14:59N 35°49' E 014°32'0 0.0
2017-Oct-20 13:59N 35°49' E 014°32'0 0.0
2017-Oct-20 09:05N 35°49' E 014°32'0 0.0
2017-Oct-20 08:51N 35°49' E 014°32'0 0.0
2017-Oct-20 06:18N 35°49' E 014°32'0 0.0
2017-Oct-20 05:59N 35°49' E 014°32'0 0.0
2017-Oct-20 05:30N 35°49' E 014°32'0 0.0
2017-Oct-20 04:59N 35°49' E 014°32'0 0.0
2017-Oct-20 04:29N 35°49' E 014°32'0 0.0
2017-Oct-20 03:09N 35°49' E 014°32'0 0.0
2017-Oct-20 02:50N 35°49' E 014°32'0 0.0
2017-Oct-20 02:26N 35°49' E 014°32'0 0.0
2017-Oct-20 01:59N 35°49' E 014°32'0 0.0
2017-Oct-20 01:08N 35°49' E 014°32'0 0.0
2017-Oct-20 00:32N 35°49' E 014°32'0 0.0
2017-Oct-20 00:20N 35°49' E 014°32'0 0.0
2017-Oct-19 23:38N 35°49' E 014°32'0 0.0
2017-Oct-19 23:20N 35°49' E 014°32'0 0.0
2017-Oct-19 22:56N 35°49' E 014°32'0 0.0
2017-Oct-19 22:14N 35°49' E 014°32'0 0.0
2017-Oct-19 21:47N 35°49' E 014°32'0 0.0
2017-Oct-19 20:32N 35°49' E 014°32'0 0.0
2017-Oct-19 19:38N 35°49' E 014°32'0 0.0
2017-Oct-19 19:27N 35°49' E 014°32'0 0.0
2017-Oct-19 17:09N 35°49' E 014°32'0 0.0
2017-Oct-19 16:54N 35°49' E 014°32'0 0.0
2017-Oct-19 16:30N 35°49' E 014°32'0 0.0
2017-Oct-19 15:57N 35°49' E 014°32'0 0.0
2017-Oct-19 15:24N 35°49' E 014°32'0 0.0
2017-Oct-19 14:57N 35°49' E 014°32'0 0.0
2017-Oct-19 14:30N 35°49' E 014°32'0 0.0
2017-Oct-19 13:51N 35°49' E 014°32'0 0.0
2017-Oct-19 13:03N 35°49' E 014°32'0 0.0
2017-Oct-19 12:51N 35°49' E 014°32'0 0.0
2017-Oct-19 12:30N 35°49' E 014°32'0 0.0
2017-Oct-19 11:45N 35°49' E 014°32'0 0.0
2017-Oct-19 08:21N 35°49' E 014°32'0 0.0
2017-Oct-19 08:00N 35°49' E 014°32'0 0.0
2017-Oct-19 07:24N 35°49' E 014°32'0 0.7
2017-Oct-19 06:59N 35°49' E 014°32'2 3.9
2017-Oct-19 06:28N 35°48' E 014°34'1 1.5
2017-Oct-19 06:00N 35°48' E 014°35'4 8.3
2017-Oct-19 05:30N 35°47' E 014°40'5 9.6
2017-Oct-19 05:00N 35°51' E 014°44'1 0.1
2017-Oct-18 20:56N 35°51' E 014°44'0 0.0
2017-Oct-18 19:47N 35°51' E 014°44'0 0.1
2017-Oct-18 19:29N 35°51' E 014°44'0 0.1
2017-Oct-18 18:56N 35°51' E 014°44'0 0.0
2017-Oct-18 18:26N 35°51' E 014°44'0 0.0
2017-Oct-18 17:59N 35°51' E 014°44'0 0.0
2017-Oct-18 17:17N 35°51' E 014°44'0 0.1
2017-Oct-18 16:59N 35°51' E 014°44'0 0.1
2017-Oct-18 16:29N 35°51' E 014°44'0 0.0
2017-Oct-18 15:59N 35°51' E 014°44'0 0.1
2017-Oct-18 15:29N 35°51' E 014°44'0 0.0
2017-Oct-18 14:59N 35°51' E 014°44'0 0.0
2017-Oct-18 13:59N 35°51' E 014°44'0 0.0
2017-Oct-18 13:29N 35°51' E 014°44'0 0.2
2017-Oct-18 12:59N 35°51' E 014°44'0 0.0
2017-Oct-18 12:29N 35°51' E 014°44'0 0.1
2017-Oct-18 11:59N 35°51' E 014°44'0 0.0
2017-Oct-18 11:29N 35°51' E 014°44'0 0.0
2017-Oct-18 10:59N 35°51' E 014°44'0 0.0
2017-Oct-18 10:29N 35°51' E 014°44'0 0.0
2017-Oct-18 09:59N 35°51' E 014°44'0 0.0
2017-Oct-18 09:29N 35°51' E 014°44'0 0.1
2017-Oct-18 08:53N 35°51' E 014°44'0 0.1
2017-Oct-18 08:26N 35°51' E 014°44'0 0.0
2017-Oct-18 07:59N 35°51' E 014°44'0 0.0
2017-Oct-18 07:29N 35°51' E 014°44'0 0.0
2017-Oct-18 06:59N 35°51' E 014°44'0 0.1
2017-Oct-18 06:29N 35°51' E 014°44'0 0.1
2017-Oct-18 05:59N 35°51' E 014°44'0 0.1
2017-Oct-18 05:29N 35°51' E 014°44'0 0.0
2017-Oct-18 04:59N 35°51' E 014°44'0 0.0
2017-Oct-18 04:29N 35°51' E 014°44'0 0.0
2017-Oct-18 03:56N 35°51' E 014°44'0 0.0
2017-Oct-18 03:29N 35°51' E 014°44'0 0.0
2017-Oct-18 02:59N 35°51' E 014°44'0 0.0
2017-Oct-18 02:29N 35°51' E 014°44'0 0.0
2017-Oct-18 01:59N 35°51' E 014°44'0 0.0
2017-Oct-18 01:29N 35°51' E 014°44'0 0.0
2017-Oct-18 00:59N 35°51' E 014°44'0 0.0
2017-Oct-18 00:29N 35°51' E 014°44'0 0.0
2017-Oct-17 23:59N 35°51' E 014°44'0 0.0
2017-Oct-17 23:29N 35°51' E 014°44'0 0.0
2017-Oct-17 22:59N 35°51' E 014°44'0 0.0
2017-Oct-17 22:29N 35°51' E 014°44'0 0.0
2017-Oct-17 21:59N 35°51' E 014°44'0 0.1
2017-Oct-17 21:26N 35°51' E 014°44'0 0.0
2017-Oct-17 20:56N 35°51' E 014°44'0 0.0
2017-Oct-17 20:29N 35°51' E 014°44'0 0.0
2017-Oct-17 19:59N 35°51' E 014°44'0 0.0
2017-Oct-17 19:29N 35°51' E 014°44'0 0.0
2017-Oct-17 18:59N 35°51' E 014°44'0 0.0
2017-Oct-17 18:26N 35°51' E 014°44'0 0.0
2017-Oct-17 17:59N 35°51' E 014°44'0 0.0
2017-Oct-17 17:20N 35°51' E 014°44'0 0.0
2017-Oct-17 16:59N 35°51' E 014°44'0 0.0
2017-Oct-17 16:23N 35°51' E 014°44'0 0.0
2017-Oct-17 15:53N 35°51' E 014°44'0 0.1
2017-Oct-17 15:29N 35°51' E 014°44'0 0.0
2017-Oct-17 14:59N 35°51' E 014°44'0 0.0
2017-Oct-17 14:29N 35°51' E 014°44'0 0.0
2017-Oct-17 13:59N 35°51' E 014°44'0 0.1
2017-Oct-17 13:29N 35°51' E 014°44'0 0.1
2017-Oct-17 12:59N 35°51' E 014°44'0 0.0
2017-Oct-17 12:26N 35°51' E 014°44'0 0.0
2017-Oct-17 11:47N 35°51' E 014°44'0 0.0
2017-Oct-17 11:26N 35°51' E 014°44'0 0.0
2017-Oct-17 10:59N 35°51' E 014°44'0 0.0
2017-Oct-17 10:26N 35°51' E 014°44'0 0.0
2017-Oct-17 09:56N 35°51' E 014°44'0 0.0
2017-Oct-17 09:29N 35°51' E 014°44'0 0.0
2017-Oct-17 08:56N 35°51' E 014°44'0 0.0
2017-Oct-17 08:29N 35°51' E 014°44'0 0.0
2017-Oct-17 07:56N 35°51' E 014°44'0 0.0
2017-Oct-17 07:29N 35°51' E 014°44'0 0.0
2017-Oct-17 06:59N 35°51' E 014°44'0 0.0
2017-Oct-17 06:29N 35°51' E 014°44'0 0.0
2017-Oct-17 05:59N 35°51' E 014°44'0 0.0
2017-Oct-17 05:29N 35°51' E 014°44'0 0.0
2017-Oct-17 04:59N 35°51' E 014°44'0 0.0
2017-Oct-17 04:29N 35°51' E 014°44'0 0.0
2017-Oct-17 03:59N 35°51' E 014°44'0 0.0
2017-Oct-17 03:14N 35°51' E 014°44'0 0.0
2017-Oct-17 02:59N 35°51' E 014°44'0 0.0
2017-Oct-17 02:29N 35°51' E 014°44'0 0.0
2017-Oct-17 01:59N 35°51' E 014°44'0 0.0
2017-Oct-17 01:29N 35°51' E 014°44'0 0.0
2017-Oct-17 00:59N 35°51' E 014°44'0 0.0
2017-Oct-17 00:29N 35°51' E 014°44'0 0.0
2017-Oct-16 23:59N 35°51' E 014°44'0 0.0
2017-Oct-16 23:29N 35°51' E 014°44'0 0.0
2017-Oct-16 22:59N 35°51' E 014°44'0 0.0
2017-Oct-16 22:29N 35°51' E 014°44'0 0.0
2017-Oct-16 21:59N 35°51' E 014°44'0 0.0
2017-Oct-16 21:29N 35°51' E 014°44'0 0.0
2017-Oct-16 20:59N 35°51' E 014°44'0 0.0
2017-Oct-16 20:26N 35°51' E 014°44'0 0.0
2017-Oct-16 19:59N 35°51' E 014°44'0 0.0
2017-Oct-16 19:29N 35°51' E 014°44'0 0.0
2017-Oct-16 18:59N 35°51' E 014°44'0 0.0
2017-Oct-16 18:29N 35°51' E 014°44'0 0.0
2017-Oct-16 17:59N 35°51' E 014°44'0 0.0
2017-Oct-16 17:29N 35°51' E 014°44'0 0.1
2017-Oct-16 16:59N 35°51' E 014°44'0 0.1
2017-Oct-16 16:29N 35°51' E 014°44'0 0.0
2017-Oct-16 15:59N 35°51' E 014°44'0 0.0
2017-Oct-16 15:23N 35°51' E 014°44'0 0.1
2017-Oct-16 14:59N 35°51' E 014°44'0 0.0
2017-Oct-16 13:59N 35°51' E 014°44'0 0.0
2017-Oct-16 13:29N 35°51' E 014°44'0 0.0
2017-Oct-16 12:59N 35°51' E 014°44'0 0.0
2017-Oct-16 12:29N 35°51' E 014°44'0 0.0
2017-Oct-16 11:53N 35°51' E 014°44'0 0.0
2017-Oct-16 11:29N 35°51' E 014°44'0 0.0
2017-Oct-16 10:56N 35°51' E 014°44'0 0.0
2017-Oct-16 10:29N 35°51' E 014°44'0 0.0
2017-Oct-16 09:59N 35°51' E 014°44'0 0.0
2017-Oct-16 09:29N 35°51' E 014°44'0 0.0
2017-Oct-16 08:59N 35°51' E 014°44'0 0.0
2017-Oct-16 08:29N 35°51' E 014°44'0 0.0
2017-Oct-16 07:56N 35°51' E 014°44'0 0.0
2017-Oct-16 07:29N 35°51' E 014°44'0 0.0
2017-Oct-16 06:59N 35°51' E 014°44'0 0.0
2017-Oct-16 06:29N 35°51' E 014°44'0 0.0
2017-Oct-16 05:59N 35°51' E 014°44'0 0.0
2017-Oct-16 05:29N 35°51' E 014°44'0 0.0
2017-Oct-16 04:59N 35°51' E 014°44'0 0.0
2017-Oct-16 04:29N 35°51' E 014°44'0 0.0
2017-Oct-16 03:59N 35°51' E 014°44'0 0.1
2017-Oct-16 03:29N 35°51' E 014°44'0 0.0
2017-Oct-16 02:59N 35°51' E 014°44'0 0.0
2017-Oct-16 02:29N 35°51' E 014°44'0 0.0
2017-Oct-16 01:59N 35°51' E 014°44'0 0.0
2017-Oct-16 01:29N 35°51' E 014°44'0 0.0
2017-Oct-16 00:59N 35°51' E 014°44'0 0.0
2017-Oct-16 00:29N 35°51' E 014°44'0 0.0
2017-Oct-15 23:59N 35°51' E 014°44'0 0.0
2017-Oct-15 23:29N 35°51' E 014°44'0 0.0
2017-Oct-15 22:59N 35°51' E 014°44'0 0.0
2017-Oct-15 22:29N 35°51' E 014°44'0 0.0
2017-Oct-15 21:59N 35°51' E 014°44'0 0.0
2017-Oct-15 21:29N 35°51' E 014°44'0 0.0
2017-Oct-15 20:59N 35°51' E 014°44'0 0.0
2017-Oct-15 20:29N 35°51' E 014°44'0 0.0
2017-Oct-15 19:59N 35°51' E 014°44'0 0.0
2017-Oct-15 19:29N 35°51' E 014°44'0 0.0
2017-Oct-15 18:59N 35°51' E 014°44'0 0.0
2017-Oct-15 18:29N 35°51' E 014°44'0 0.0
2017-Oct-15 17:59N 35°51' E 014°44'0 0.0
2017-Oct-15 17:29N 35°51' E 014°44'0 0.0
2017-Oct-15 16:59N 35°51' E 014°44'0 0.0
2017-Oct-15 16:26N 35°51' E 014°44'0 0.0
2017-Oct-15 15:56N 35°51' E 014°44'0 0.0
2017-Oct-15 15:29N 35°51' E 014°44'0 0.1
2017-Oct-15 14:59N 35°51' E 014°44'0 0.0
2017-Oct-15 13:59N 35°51' E 014°44'0 0.0
2017-Oct-15 13:26N 35°51' E 014°44'0 0.0
2017-Oct-15 12:56N 35°51' E 014°44'0 0.0
2017-Oct-15 12:23N 35°51' E 014°44'0 0.0
2017-Oct-15 11:59N 35°51' E 014°44'0 0.1
2017-Oct-15 11:29N 35°51' E 014°44'0 0.0
2017-Oct-15 10:59N 35°51' E 014°44'0 0.0
2017-Oct-15 10:29N 35°51' E 014°44'0 0.0
2017-Oct-15 09:59N 35°51' E 014°44'0 0.0
2017-Oct-15 09:29N 35°51' E 014°44'0 0.0
2017-Oct-15 08:56N 35°51' E 014°44'0 0.0
2017-Oct-15 08:29N 35°51' E 014°44'0 0.0
2017-Oct-15 07:59N 35°51' E 014°44'0 0.0
2017-Oct-15 07:29N 35°51' E 014°44'0 0.1
2017-Oct-15 07:00N 35°51' E 014°44'1 2.2
2017-Oct-15 06:30N 35°51' E 014°43'510.4
2017-Oct-15 06:00N 35°46' E 014°40'611.5
2017-Oct-15 05:30N 35°43' E 014°35'714.2
2017-Oct-15 05:00N 35°44' E 014°26'714.5
2017-Oct-15 04:30N 35°47' E 014°18'714.5
2017-Oct-15 04:00N 35°51' E 014°10'714.1
2017-Oct-15 03:30N 35°55' E 014°03'713.7
2017-Oct-15 03:00N 35°59' E 013°56'713.6
2017-Oct-15 02:30N 36°03' E 013°49'713.3
2017-Oct-15 02:00N 36°06' E 013°42'713.4
2017-Oct-15 01:30N 36°10' E 013°35'713.3
2017-Oct-15 01:00N 36°13' E 013°28'713.4
2017-Oct-15 00:30N 36°17' E 013°21'713.4
2017-Oct-15 00:00N 36°20' E 013°14'713.5
2017-Oct-14 23:30N 36°23' E 013°06'813.2
2017-Oct-14 22:54N 36°28' E 012°59'813.7
2017-Oct-14 22:21N 36°31' E 012°51'513.5
2017-Oct-14 22:00N 36°33' E 012°45'34013.2
2017-Oct-13 20:10N 37°21' E 005°44'213.8
2017-Oct-13 20:00N 37°20' E 005°41'813.8
2017-Oct-13 19:25N 37°19' E 005°31'1213.7
2017-Oct-13 18:33N 37°17' E 005°17'313.6
2017-Oct-13 18:20N 37°17' E 005°13'413.5
2017-Oct-13 18:00N 37°16' E 005°07'713.6
2017-Oct-13 17:30N 37°15' E 004°59'713.8
2017-Oct-13 17:00N 37°14' E 004°50'713.6
2017-Oct-13 16:30N 37°13' E 004°42'713.6
2017-Oct-13 16:00N 37°13' E 004°33'713.3
2017-Oct-13 15:30N 37°12' E 004°25'713.5
2017-Oct-13 15:00N 37°10' E 004°17'713.6
2017-Oct-13 14:30N 37°09' E 004°08'713.5
2017-Oct-13 14:00N 37°07' E 004°00'813.6
2017-Oct-13 13:24N 37°07' E 003°50'713.6
2017-Oct-13 12:55N 37°06' E 003°42'713.4
2017-Oct-13 12:24N 37°04' E 003°34'913.6
2017-Oct-13 11:46N 37°03' E 003°23'413.9
2017-Oct-13 11:29N 37°02' E 003°18'1910.6
2017-Oct-13 09:40N 36°46' E 003°04'0 0.0
2017-Oct-13 09:25N 36°46' E 003°04'0 0.0
2017-Oct-13 08:55N 36°46' E 003°04'0 0.0
2017-Oct-13 08:28N 36°46' E 003°04'0 0.0
2017-Oct-13 04:28N 36°46' E 003°04'0 0.0
2017-Oct-13 03:22N 36°46' E 003°04'0 0.0
2017-Oct-13 01:58N 36°46' E 003°04'0 0.0
2017-Oct-13 01:30N 36°46' E 003°04'0 0.0
2017-Oct-13 01:01N 36°46' E 003°04'0 0.0
2017-Oct-13 00:31N 36°46' E 003°04'0 0.0
2017-Oct-12 23:58N 36°46' E 003°04'0 0.0
2017-Oct-12 23:28N 36°46' E 003°04'0 0.0
2017-Oct-12 21:07N 36°46' E 003°04'0 0.0
2017-Oct-12 20:55N 36°46' E 003°04'0 0.0
2017-Oct-12 20:31N 36°46' E 003°04'0 0.0
2017-Oct-12 20:01N 36°46' E 003°04'0 0.0
2017-Oct-12 19:28N 36°46' E 003°04'0 0.0
2017-Oct-12 15:55N 36°46' E 003°04'0 0.0
2017-Oct-12 15:07N 36°46' E 003°04'0 0.0
2017-Oct-12 14:58N 36°46' E 003°04'0 0.0
2017-Oct-12 13:19N 36°46' E 003°04'0 0.0
2017-Oct-12 13:01N 36°46' E 003°04'0 0.0
2017-Oct-12 11:16N 36°46' E 003°04'0 0.0
2017-Oct-12 10:58N 36°46' E 003°04'0 0.0
2017-Oct-12 03:55N 36°46' E 003°04'0 0.0
2017-Oct-12 02:42N 36°46' E 003°04'  
Track history (hours):
 
Tides and Currents Weather Stations Pressure Air Temp Water Temp Dewpoint Dewpoint Depression Visibility Wind Speed Wind Dir Waves Ship Positions

CMA CGM Herodote

Last reported at 2017-Oct-21 09:47 UTC. Time now 2017-Oct-23 04:30 UTC.
Position N 36°05' E 013°46'.

Length 170 m; draft 6.2 m.

Type: Cargo ship. MMSI: 235051085.

Date/timePositionNaut miles runAvg speedWind from/ knotsBaromVisibWave heightAir tempDewpointWater temp
2017-Oct-21 09:47N 36°05' E 013°46'615.5
2017-Oct-21 09:22N 36°02' E 013°53'615.7
2017-Oct-21 08:59N 35°58' E 013°59'816.4
2017-Oct-21 08:30N 35°54' E 014°07'816.5
2017-Oct-21 08:00N 35°50' E 014°16'816.4
2017-Oct-21 07:31N 35°45' E 014°24'815.6
2017-Oct-21 06:59N 35°47' E 014°34'3 5.7
2017-Oct-21 06:29N 35°49' E 014°32'0 0.8
2017-Oct-21 05:58N 35°49' E 014°32'0 0.0
2017-Oct-21 05:25N 35°49' E 014°32'0 0.0
2017-Oct-21 04:58N 35°49' E 014°32'0 0.0
2017-Oct-21 02:44N 35°49' E 014°32'0 0.0
2017-Oct-21 01:41N 35°49' E 014°32'0 0.0
2017-Oct-21 01:29N 35°49' E 014°32'0 0.0
2017-Oct-21 00:56N 35°49' E 014°32'0 0.0
2017-Oct-21 00:20N 35°49' E 014°32'0 0.0
2017-Oct-20 23:56N 35°49' E 014°32'0 0.0
2017-Oct-20 23:29N 35°49' E 014°32'0 0.0
2017-Oct-20 22:56N 35°49' E 014°32'0 0.0
2017-Oct-20 22:29N 35°49' E 014°32'0 0.0
2017-Oct-20 21:59N 35°49' E 014°32'0 0.0
2017-Oct-20 21:26N 35°49' E 014°32'0 0.0
2017-Oct-20 16:14N 35°49' E 014°32'0 0.0
2017-Oct-20 15:56N 35°49' E 014°32'0 0.0
2017-Oct-20 14:59N 35°49' E 014°32'0 0.0
2017-Oct-20 13:59N 35°49' E 014°32'0 0.0
2017-Oct-20 09:05N 35°49' E 014°32'0 0.0
2017-Oct-20 08:51N 35°49' E 014°32'0 0.0
2017-Oct-20 06:18N 35°49' E 014°32'0 0.0
2017-Oct-20 05:59N 35°49' E 014°32'0 0.0
2017-Oct-20 05:30N 35°49' E 014°32'0 0.0
2017-Oct-20 04:59N 35°49' E 014°32'0 0.0
2017-Oct-20 04:29N 35°49' E 014°32'0 0.0
2017-Oct-20 03:09N 35°49' E 014°32'0 0.0
2017-Oct-20 02:50N 35°49' E 014°32'0 0.0
2017-Oct-20 02:26N 35°49' E 014°32'0 0.0
2017-Oct-20 01:59N 35°49' E 014°32'0 0.0
2017-Oct-20 01:08N 35°49' E 014°32'0 0.0
2017-Oct-20 00:32N 35°49' E 014°32'0 0.0
2017-Oct-20 00:20N 35°49' E 014°32'0 0.0
2017-Oct-19 23:38N 35°49' E 014°32'0 0.0
2017-Oct-19 23:20N 35°49' E 014°32'0 0.0
2017-Oct-19 22:56N 35°49' E 014°32'0 0.0
2017-Oct-19 22:14N 35°49' E 014°32'0 0.0
2017-Oct-19 21:47N 35°49' E 014°32'0 0.0
2017-Oct-19 20:32N 35°49' E 014°32'0 0.0
2017-Oct-19 19:38N 35°49' E 014°32'0 0.0
2017-Oct-19 19:27N 35°49' E 014°32'0 0.0
2017-Oct-19 17:09N 35°49' E 014°32'0 0.0
2017-Oct-19 16:54N 35°49' E 014°32'0 0.0
2017-Oct-19 16:30N 35°49' E 014°32'0 0.0
2017-Oct-19 15:57N 35°49' E 014°32'0 0.0
2017-Oct-19 15:24N 35°49' E 014°32'0 0.0
2017-Oct-19 14:57N 35°49' E 014°32'0 0.0
2017-Oct-19 14:30N 35°49' E 014°32'0 0.0
2017-Oct-19 13:51N 35°49' E 014°32'0 0.0
2017-Oct-19 13:03N 35°49' E 014°32'0 0.0
2017-Oct-19 12:51N 35°49' E 014°32'0 0.0
2017-Oct-19 12:30N 35°49' E 014°32'0 0.0
2017-Oct-19 11:45N 35°49' E 014°32'0 0.0
2017-Oct-19 08:21N 35°49' E 014°32'0 0.0
2017-Oct-19 08:00N 35°49' E 014°32'0 0.0
2017-Oct-19 07:24N 35°49' E 014°32'0 0.7
2017-Oct-19 06:59N 35°49' E 014°32'2 3.9
2017-Oct-19 06:28N 35°48' E 014°34'1 1.5
2017-Oct-19 06:00N 35°48' E 014°35'4 8.3
2017-Oct-19 05:30N 35°47' E 014°40'5 9.6
2017-Oct-19 05:00N 35°51' E 014°44'1 0.1
2017-Oct-18 20:56N 35°51' E 014°44'0 0.0
2017-Oct-18 19:47N 35°51' E 014°44'0 0.1
2017-Oct-18 19:29N 35°51' E 014°44'0 0.1
2017-Oct-18 18:56N 35°51' E 014°44'0 0.0
2017-Oct-18 18:26N 35°51' E 014°44'0 0.0
2017-Oct-18 17:59N 35°51' E 014°44'0 0.0
2017-Oct-18 17:17N 35°51' E 014°44'0 0.1
2017-Oct-18 16:59N 35°51' E 014°44'0 0.1
2017-Oct-18 16:29N 35°51' E 014°44'0 0.0
2017-Oct-18 15:59N 35°51' E 014°44'0 0.1
2017-Oct-18 15:29N 35°51' E 014°44'0 0.0
2017-Oct-18 14:59N 35°51' E 014°44'0 0.0
2017-Oct-18 13:59N 35°51' E 014°44'0 0.0
2017-Oct-18 13:29N 35°51' E 014°44'0 0.2
2017-Oct-18 12:59N 35°51' E 014°44'0 0.0
2017-Oct-18 12:29N 35°51' E 014°44'0 0.1
2017-Oct-18 11:59N 35°51' E 014°44'0 0.0
2017-Oct-18 11:29N 35°51' E 014°44'0 0.0
2017-Oct-18 10:59N 35°51' E 014°44'0 0.0
2017-Oct-18 10:29N 35°51' E 014°44'0 0.0
2017-Oct-18 09:59N 35°51' E 014°44'0 0.0
2017-Oct-18 09:29N 35°51' E 014°44'0 0.1
2017-Oct-18 08:53N 35°51' E 014°44'0 0.1
2017-Oct-18 08:26N 35°51' E 014°44'0 0.0
2017-Oct-18 07:59N 35°51' E 014°44'0 0.0
2017-Oct-18 07:29N 35°51' E 014°44'0 0.0
2017-Oct-18 06:59N 35°51' E 014°44'0 0.1
2017-Oct-18 06:29N 35°51' E 014°44'0 0.1
2017-Oct-18 05:59N 35°51' E 014°44'0 0.1
2017-Oct-18 05:29N 35°51' E 014°44'0 0.0
2017-Oct-18 04:59N 35°51' E 014°44'0 0.0
2017-Oct-18 04:29N 35°51' E 014°44'0 0.0
2017-Oct-18 03:56N 35°51' E 014°44'0 0.0
2017-Oct-18 03:29N 35°51' E 014°44'0 0.0
2017-Oct-18 02:59N 35°51' E 014°44'0 0.0
2017-Oct-18 02:29N 35°51' E 014°44'0 0.0
2017-Oct-18 01:59N 35°51' E 014°44'0 0.0
2017-Oct-18 01:29N 35°51' E 014°44'0 0.0
2017-Oct-18 00:59N 35°51' E 014°44'0 0.0
2017-Oct-18 00:29N 35°51' E 014°44'0 0.0
2017-Oct-17 23:59N 35°51' E 014°44'0 0.0
2017-Oct-17 23:29N 35°51' E 014°44'0 0.0
2017-Oct-17 22:59N 35°51' E 014°44'0 0.0
2017-Oct-17 22:29N 35°51' E 014°44'0 0.0
2017-Oct-17 21:59N 35°51' E 014°44'0 0.1
2017-Oct-17 21:26N 35°51' E 014°44'0 0.0
2017-Oct-17 20:56N 35°51' E 014°44'0 0.0
2017-Oct-17 20:29N 35°51' E 014°44'0 0.0
2017-Oct-17 19:59N 35°51' E 014°44'0 0.0
2017-Oct-17 19:29N 35°51' E 014°44'0 0.0
2017-Oct-17 18:59N 35°51' E 014°44'0 0.0
2017-Oct-17 18:26N 35°51' E 014°44'0 0.0
2017-Oct-17 17:59N 35°51' E 014°44'0 0.0
2017-Oct-17 17:20N 35°51' E 014°44'0 0.0
2017-Oct-17 16:59N 35°51' E 014°44'0 0.0
2017-Oct-17 16:23N 35°51' E 014°44'0 0.0
2017-Oct-17 15:53N 35°51' E 014°44'0 0.1
2017-Oct-17 15:29N 35°51' E 014°44'0 0.0
2017-Oct-17 14:59N 35°51' E 014°44'0 0.0
2017-Oct-17 14:29N 35°51' E 014°44'0 0.0
2017-Oct-17 13:59N 35°51' E 014°44'0 0.1
2017-Oct-17 13:29N 35°51' E 014°44'0 0.1
2017-Oct-17 12:59N 35°51' E 014°44'0 0.0
2017-Oct-17 12:26N 35°51' E 014°44'0 0.0
2017-Oct-17 11:47N 35°51' E 014°44'0 0.0
2017-Oct-17 11:26N 35°51' E 014°44'0 0.0
2017-Oct-17 10:59N 35°51' E 014°44'0 0.0
2017-Oct-17 10:26N 35°51' E 014°44'0 0.0
2017-Oct-17 09:56N 35°51' E 014°44'0 0.0
2017-Oct-17 09:29N 35°51' E 014°44'0 0.0
2017-Oct-17 08:56N 35°51' E 014°44'0 0.0
2017-Oct-17 08:29N 35°51' E 014°44'0 0.0
2017-Oct-17 07:56N 35°51' E 014°44'0 0.0
2017-Oct-17 07:29N 35°51' E 014°44'0 0.0
2017-Oct-17 06:59N 35°51' E 014°44'0 0.0
2017-Oct-17 06:29N 35°51' E 014°44'0 0.0
2017-Oct-17 05:59N 35°51' E 014°44'0 0.0
2017-Oct-17 05:29N 35°51' E 014°44'0 0.0
2017-Oct-17 04:59N 35°51' E 014°44'0 0.0
2017-Oct-17 04:29N 35°51' E 014°44'0 0.0
2017-Oct-17 03:59N 35°51' E 014°44'0 0.0
2017-Oct-17 03:14N 35°51' E 014°44'0 0.0
2017-Oct-17 02:59N 35°51' E 014°44'0 0.0
2017-Oct-17 02:29N 35°51' E 014°44'0 0.0
2017-Oct-17 01:59N 35°51' E 014°44'0 0.0
2017-Oct-17 01:29N 35°51' E 014°44'0 0.0
2017-Oct-17 00:59N 35°51' E 014°44'0 0.0
2017-Oct-17 00:29N 35°51' E 014°44'0 0.0
2017-Oct-16 23:59N 35°51' E 014°44'0 0.0
2017-Oct-16 23:29N 35°51' E 014°44'0 0.0
2017-Oct-16 22:59N 35°51' E 014°44'0 0.0
2017-Oct-16 22:29N 35°51' E 014°44'0 0.0
2017-Oct-16 21:59N 35°51' E 014°44'0 0.0
2017-Oct-16 21:29N 35°51' E 014°44'0 0.0
2017-Oct-16 20:59N 35°51' E 014°44'0 0.0
2017-Oct-16 20:26N 35°51' E 014°44'0 0.0
2017-Oct-16 19:59N 35°51' E 014°44'0 0.0
2017-Oct-16 19:29N 35°51' E 014°44'0 0.0
2017-Oct-16 18:59N 35°51' E 014°44'0 0.0
2017-Oct-16 18:29N 35°51' E 014°44'0 0.0
2017-Oct-16 17:59N 35°51' E 014°44'0 0.0
2017-Oct-16 17:29N 35°51' E 014°44'0 0.1
2017-Oct-16 16:59N 35°51' E 014°44'0 0.1
2017-Oct-16 16:29N 35°51' E 014°44'0 0.0
2017-Oct-16 15:59N 35°51' E 014°44'0 0.0
2017-Oct-16 15:23N 35°51' E 014°44'0 0.1
2017-Oct-16 14:59N 35°51' E 014°44'0 0.0
2017-Oct-16 13:59N 35°51' E 014°44'0 0.0
2017-Oct-16 13:29N 35°51' E 014°44'0 0.0
2017-Oct-16 12:59N 35°51' E 014°44'0 0.0
2017-Oct-16 12:29N 35°51' E 014°44'0 0.0
2017-Oct-16 11:53N 35°51' E 014°44'0 0.0
2017-Oct-16 11:29N 35°51' E 014°44'0 0.0
2017-Oct-16 10:56N 35°51' E 014°44'0 0.0
2017-Oct-16 10:29N 35°51' E 014°44'0 0.0
2017-Oct-16 09:59N 35°51' E 014°44'0 0.0
2017-Oct-16 09:29N 35°51' E 014°44'0 0.0
2017-Oct-16 08:59N 35°51' E 014°44'0 0.0
2017-Oct-16 08:29N 35°51' E 014°44'0 0.0
2017-Oct-16 07:56N 35°51' E 014°44'0 0.0
2017-Oct-16 07:29N 35°51' E 014°44'0 0.0
2017-Oct-16 06:59N 35°51' E 014°44'0 0.0
2017-Oct-16 06:29N 35°51' E 014°44'0 0.0
2017-Oct-16 05:59N 35°51' E 014°44'0 0.0
2017-Oct-16 05:29N 35°51' E 014°44'0 0.0
2017-Oct-16 04:59N 35°51' E 014°44'0 0.0
2017-Oct-16 04:29N 35°51' E 014°44'0 0.0
2017-Oct-16 03:59N 35°51' E 014°44'0 0.1
2017-Oct-16 03:29N 35°51' E 014°44'0 0.0
2017-Oct-16 02:59N 35°51' E 014°44'0 0.0
2017-Oct-16 02:29N 35°51' E 014°44'0 0.0
2017-Oct-16 01:59N 35°51' E 014°44'0 0.0
2017-Oct-16 01:29N 35°51' E 014°44'0 0.0
2017-Oct-16 00:59N 35°51' E 014°44'0 0.0
2017-Oct-16 00:29N 35°51' E 014°44'0 0.0
2017-Oct-15 23:59N 35°51' E 014°44'0 0.0
2017-Oct-15 23:29N 35°51' E 014°44'0 0.0
2017-Oct-15 22:59N 35°51' E 014°44'0 0.0
2017-Oct-15 22:29N 35°51' E 014°44'0 0.0
2017-Oct-15 21:59N 35°51' E 014°44'0 0.0
2017-Oct-15 21:29N 35°51' E 014°44'0 0.0
2017-Oct-15 20:59N 35°51' E 014°44'0 0.0
2017-Oct-15 20:29N 35°51' E 014°44'0 0.0
2017-Oct-15 19:59N 35°51' E 014°44'0 0.0
2017-Oct-15 19:29N 35°51' E 014°44'0 0.0
2017-Oct-15 18:59N 35°51' E 014°44'0 0.0
2017-Oct-15 18:29N 35°51' E 014°44'0 0.0
2017-Oct-15 17:59N 35°51' E 014°44'0 0.0
2017-Oct-15 17:29N 35°51' E 014°44'0 0.0
2017-Oct-15 16:59N 35°51' E 014°44'0 0.0
2017-Oct-15 16:26N 35°51' E 014°44'0 0.0
2017-Oct-15 15:56N 35°51' E 014°44'0 0.0
2017-Oct-15 15:29N 35°51' E 014°44'0 0.1
2017-Oct-15 14:59N 35°51' E 014°44'0 0.0
2017-Oct-15 13:59N 35°51' E 014°44'0 0.0
2017-Oct-15 13:26N 35°51' E 014°44'0 0.0
2017-Oct-15 12:56N 35°51' E 014°44'0 0.0
2017-Oct-15 12:23N 35°51' E 014°44'0 0.0
2017-Oct-15 11:59N 35°51' E 014°44'0 0.1
2017-Oct-15 11:29N 35°51' E 014°44'0 0.0
2017-Oct-15 10:59N 35°51' E 014°44'0 0.0
2017-Oct-15 10:29N 35°51' E 014°44'0 0.0
2017-Oct-15 09:59N 35°51' E 014°44'0 0.0
2017-Oct-15 09:29N 35°51' E 014°44'0 0.0
2017-Oct-15 08:56N 35°51' E 014°44'0 0.0
2017-Oct-15 08:29N 35°51' E 014°44'0 0.0
2017-Oct-15 07:59N 35°51' E 014°44'0 0.0
2017-Oct-15 07:29N 35°51' E 014°44'0 0.1
2017-Oct-15 07:00N 35°51' E 014°44'1 2.2
2017-Oct-15 06:30N 35°51' E 014°43'510.4
2017-Oct-15 06:00N 35°46' E 014°40'611.5
2017-Oct-15 05:30N 35°43' E 014°35'714.2
2017-Oct-15 05:00N 35°44' E 014°26'714.5
2017-Oct-15 04:30N 35°47' E 014°18'714.5
2017-Oct-15 04:00N 35°51' E 014°10'714.1
2017-Oct-15 03:30N 35°55' E 014°03'713.7
2017-Oct-15 03:00N 35°59' E 013°56'713.6
2017-Oct-15 02:30N 36°03' E 013°49'713.3
2017-Oct-15 02:00N 36°06' E 013°42'713.4
2017-Oct-15 01:30N 36°10' E 013°35'713.3
2017-Oct-15 01:00N 36°13' E 013°28'713.4
2017-Oct-15 00:30N 36°17' E 013°21'713.4
2017-Oct-15 00:00N 36°20' E 013°14'713.5
2017-Oct-14 23:30N 36°23' E 013°06'813.2
2017-Oct-14 22:54N 36°28' E 012°59'813.7
2017-Oct-14 22:21N 36°31' E 012°51'513.5
2017-Oct-14 22:00N 36°33' E 012°45'34013.2
2017-Oct-13 20:10N 37°21' E 005°44'213.8
2017-Oct-13 20:00N 37°20' E 005°41'813.8
2017-Oct-13 19:25N 37°19' E 005°31'1213.7
2017-Oct-13 18:33N 37°17' E 005°17'313.6
2017-Oct-13 18:20N 37°17' E 005°13'413.5
2017-Oct-13 18:00N 37°16' E 005°07'713.6
2017-Oct-13 17:30N 37°15' E 004°59'713.8
2017-Oct-13 17:00N 37°14' E 004°50'713.6
2017-Oct-13 16:30N 37°13' E 004°42'713.6
2017-Oct-13 16:00N 37°13' E 004°33'713.3
2017-Oct-13 15:30N 37°12' E 004°25'713.5
2017-Oct-13 15:00N 37°10' E 004°17'713.6
2017-Oct-13 14:30N 37°09' E 004°08'713.5
2017-Oct-13 14:00N 37°07' E 004°00'813.6
2017-Oct-13 13:24N 37°07' E 003°50'713.6
2017-Oct-13 12:55N 37°06' E 003°42'713.4
2017-Oct-13 12:24N 37°04' E 003°34'913.6
2017-Oct-13 11:46N 37°03' E 003°23'413.9
2017-Oct-13 11:29N 37°02' E 003°18'1910.6
2017-Oct-13 09:40N 36°46' E 003°04'0 0.0
2017-Oct-13 09:25N 36°46' E 003°04'0 0.0
2017-Oct-13 08:55N 36°46' E 003°04'0 0.0
2017-Oct-13 08:28N 36°46' E 003°04'0 0.0
2017-Oct-13 04:28N 36°46' E 003°04'0 0.0
2017-Oct-13 03:22N 36°46' E 003°04'0 0.0
2017-Oct-13 01:58N 36°46' E 003°04'0 0.0
2017-Oct-13 01:30N 36°46' E 003°04'0 0.0
2017-Oct-13 01:01N 36°46' E 003°04'0 0.0
2017-Oct-13 00:31N 36°46' E 003°04'0 0.0
2017-Oct-12 23:58N 36°46' E 003°04'0 0.0
2017-Oct-12 23:28N 36°46' E 003°04'0 0.0
2017-Oct-12 21:07N 36°46' E 003°04'0 0.0
2017-Oct-12 20:55N 36°46' E 003°04'0 0.0
2017-Oct-12 20:31N 36°46' E 003°04'0 0.0
2017-Oct-12 20:01N 36°46' E 003°04'0 0.0
2017-Oct-12 19:28N 36°46' E 003°04'0 0.0
2017-Oct-12 15:55N 36°46' E 003°04'0 0.0
2017-Oct-12 15:07N 36°46' E 003°04'0 0.0
2017-Oct-12 14:58N 36°46' E 003°04'0 0.0
2017-Oct-12 13:19N 36°46' E 003°04'0 0.0
2017-Oct-12 13:01N 36°46' E 003°04'0 0.0
2017-Oct-12 11:16N 36°46' E 003°04'0 0.0
2017-Oct-12 10:58N 36°46' E 003°04'0 0.0
2017-Oct-12 03:55N 36°46' E 003°04'0 0.0
2017-Oct-12 02:42N 36°46' E 003°04'  

Dump ship's entire track history